createdAt,value
2022-12-23T00:00:56.558Z,84.18
2022-12-23T00:03:24.908Z,85.21
2022-12-23T00:05:53.272Z,84.14
2022-12-23T00:08:21.825Z,83.81
2022-12-23T00:10:50.401Z,84.70
2022-12-23T00:13:36.588Z,84.48
2022-12-23T00:16:08.481Z,83.21
2022-12-23T00:18:36.354Z,83.15
2022-12-23T00:21:08.822Z,83.68
2022-12-23T00:23:39.594Z,83.51
2022-12-23T00:26:08.273Z,84.15
2022-12-23T00:28:35.787Z,85.99
2022-12-23T00:31:06.835Z,85.71
2022-12-23T00:33:37.194Z,84.83
2022-12-23T00:36:12.786Z,85.20
2022-12-23T00:38:58.097Z,84.22
2022-12-23T00:41:43.593Z,84.23
2022-12-23T00:44:11.189Z,84.14
2022-12-23T00:46:40.500Z,83.83
2022-12-23T00:49:25.784Z,83.47
2022-12-23T00:51:53.534Z,83.25
2022-12-23T00:54:21.169Z,83.20
2022-12-23T00:56:48.775Z,82.73
2022-12-23T00:59:16.461Z,82.99
2022-12-23T01:02:03.485Z,84.32
2022-12-23T01:04:50.262Z,84.74
2022-12-23T01:07:17.801Z,84.50
2022-12-23T01:09:45.522Z,84.21
2022-12-23T01:12:13.233Z,84.13
2022-12-23T01:14:41.219Z,85.02
2022-12-23T01:17:10.267Z,85.08
2022-12-23T01:19:38.033Z,86.13
2022-12-23T01:22:05.789Z,85.54
2022-12-23T01:24:34.162Z,85.41
2022-12-23T01:27:02.076Z,85.83
2022-12-23T01:29:29.815Z,86.19
2022-12-23T01:31:57.601Z,86.21
2022-12-23T01:34:31.172Z,86.07
2022-12-23T01:37:01.969Z,87.11
2022-12-23T01:39:29.456Z,87.36
2022-12-23T01:42:14.727Z,88.35
2022-12-23T01:45:07.431Z,87.47
2022-12-23T01:47:39.777Z,87.46
2022-12-23T01:50:13.681Z,87.58
2022-12-23T01:52:46.667Z,87.70
2022-12-23T01:55:17.270Z,88.09
2022-12-23T01:57:46.138Z,88.34
2022-12-23T02:00:31.983Z,88.55
2022-12-23T02:03:17.224Z,88.55
2022-12-23T02:05:47.181Z,88.67
2022-12-23T02:08:33.672Z,88.26
2022-12-23T02:11:23.252Z,88.23
2022-12-23T02:14:19.701Z,88.53
2022-12-23T02:16:55.816Z,88.10
2022-12-23T02:19:41.358Z,88.34
2022-12-23T02:22:29.526Z,88.33
2022-12-23T02:25:16.994Z,87.57
2022-12-23T02:28:01.280Z,88.12
2022-12-23T02:30:42.475Z,87.96
2022-12-23T02:33:21.959Z,86.89
2022-12-23T02:35:59.762Z,87.94
2022-12-23T02:38:30.593Z,88.86
2022-12-23T02:41:09.340Z,88.85
2022-12-23T02:43:44.321Z,87.84
2022-12-23T02:46:18.083Z,88.46
2022-12-23T02:48:51.847Z,88.34
2022-12-23T02:51:23.625Z,87.95
2022-12-23T02:53:55.572Z,87.16
2022-12-23T02:56:27.066Z,87.50
2022-12-23T02:58:58.843Z,86.71
2022-12-23T03:01:30.808Z,87.56
2022-12-23T03:03:58.720Z,86.84
2022-12-23T03:06:29.971Z,86.54
2022-12-23T03:09:00.538Z,87.72
2022-12-23T03:11:40.193Z,87.19
2022-12-23T03:14:33.214Z,87.32
2022-12-23T03:17:14.830Z,86.51
2022-12-23T03:19:49.067Z,87.69
2022-12-23T03:22:25.861Z,87.60
2022-12-23T03:25:01.688Z,86.88
2022-12-23T03:27:35.101Z,86.78
2022-12-23T03:30:05.931Z,86.91
2022-12-23T03:32:37.867Z,86.91
2022-12-23T03:35:08.624Z,87.19
2022-12-23T03:37:42.154Z,86.80
2022-12-23T03:40:17.302Z,86.65
2022-12-23T03:42:47.563Z,86.76
2022-12-23T03:45:38.585Z,87.27
2022-12-23T03:48:14.055Z,89.24
2022-12-23T03:50:44.002Z,88.50
2022-12-23T03:53:18.536Z,87.72
2022-12-23T03:55:51.524Z,87.86
2022-12-23T03:58:29.955Z,87.48
2022-12-23T04:01:06.033Z,87.42
2022-12-23T04:03:42.600Z,87.02
2022-12-23T04:06:15.383Z,88.19
2022-12-23T04:08:44.674Z,87.47
2022-12-23T04:11:13.003Z,88.00
2022-12-23T04:13:41.008Z,88.19
2022-12-23T04:16:09.134Z,88.96
2022-12-23T04:18:38.055Z,89.45
2022-12-23T04:21:06.383Z,88.33
2022-12-23T04:23:33.967Z,88.01
2022-12-23T04:26:04.337Z,88.79
2022-12-23T04:28:31.860Z,88.41
2022-12-23T04:30:59.417Z,88.27
2022-12-23T04:33:26.942Z,88.15
2022-12-23T04:35:55.799Z,87.34
2022-12-23T04:38:23.348Z,88.21
2022-12-23T04:40:50.879Z,88.30
2022-12-23T04:43:18.446Z,88.46
2022-12-23T04:45:50.614Z,89.30
2022-12-23T04:48:18.154Z,88.46
2022-12-23T04:50:45.821Z,87.01
2022-12-23T04:53:14.726Z,88.15
2022-12-23T04:58:09.864Z,88.06
2022-12-23T05:00:39.729Z,87.85
2022-12-23T05:03:07.860Z,87.23
2022-12-23T05:05:35.803Z,87.20
2022-12-23T05:08:05.319Z,86.49
2022-12-23T05:10:34.465Z,86.62
2022-12-23T05:13:02.175Z,86.55
2022-12-23T05:15:29.718Z,87.52
2022-12-23T05:17:57.257Z,87.10
2022-12-23T05:20:24.772Z,86.73
2022-12-23T05:22:52.434Z,86.25
2022-12-23T05:25:20.051Z,87.25
2022-12-23T05:27:49.174Z,86.35
2022-12-23T05:30:17.002Z,87.27
2022-12-23T05:32:44.728Z,87.69
2022-12-23T05:35:12.342Z,86.46
2022-12-23T05:37:39.985Z,87.48
2022-12-23T05:40:08.741Z,86.38
2022-12-23T05:42:36.707Z,86.08
2022-12-23T05:45:06.386Z,85.09
2022-12-23T05:47:34.277Z,85.74
2022-12-23T05:50:01.865Z,86.09
2022-12-23T05:52:29.547Z,86.66
2022-12-23T05:54:57.091Z,86.23
2022-12-23T05:57:25.094Z,87.96
2022-12-23T05:59:52.683Z,88.23
2022-12-23T06:02:22.519Z,88.71
2022-12-23T06:04:50.595Z,87.67
2022-12-23T06:07:18.209Z,87.83
2022-12-23T06:09:45.888Z,88.78
2022-12-23T06:12:13.492Z,88.57
2022-12-23T06:14:41.387Z,88.88
2022-12-23T06:17:09.231Z,88.42
2022-12-23T06:19:38.401Z,88.16
2022-12-23T06:22:06.085Z,88.70
2022-12-23T06:24:33.769Z,88.92
2022-12-23T06:27:01.290Z,89.37
2022-12-23T06:29:29.176Z,88.45
2022-12-23T06:31:56.736Z,88.59
2022-12-23T06:34:24.365Z,88.06
2022-12-23T06:36:53.188Z,88.08
2022-12-23T06:39:21.168Z,87.18
2022-12-23T06:41:48.751Z,87.44
2022-12-23T06:44:16.445Z,86.85
2022-12-23T06:46:43.929Z,87.37
2022-12-23T06:49:13.745Z,87.37
2022-12-23T06:51:41.808Z,86.39
2022-12-23T06:54:12.664Z,86.03
2022-12-23T06:56:40.773Z,86.36
2022-12-23T06:59:08.285Z,86.68
2022-12-23T07:01:35.892Z,87.34
2022-12-23T07:04:03.615Z,86.49
2022-12-23T07:06:31.205Z,85.86
2022-12-23T07:08:58.796Z,86.38
2022-12-23T07:11:27.749Z,86.04
2022-12-23T07:13:55.248Z,85.34
2022-12-23T07:16:22.833Z,85.48
2022-12-23T07:18:50.392Z,85.67
2022-12-23T07:21:28.612Z,85.48
2022-12-23T07:23:57.452Z,85.58
2022-12-23T07:26:25.357Z,85.67
2022-12-23T07:28:54.735Z,86.22
2022-12-23T07:31:22.460Z,85.95
2022-12-23T07:33:50.135Z,86.36
2022-12-23T07:36:20.585Z,85.98
2022-12-23T07:38:50.880Z,84.81
2022-12-23T07:41:18.637Z,86.37
2022-12-23T07:43:46.285Z,85.10
2022-12-23T07:46:15.265Z,84.89
2022-12-23T07:48:43.542Z,84.60
2022-12-23T07:51:11.041Z,85.23
2022-12-23T07:53:38.597Z,85.76
2022-12-23T07:56:07.104Z,85.83
2022-12-23T07:58:34.610Z,85.41
2022-12-23T08:01:03.423Z,85.05
2022-12-23T08:03:32.589Z,85.49
2022-12-23T08:06:02.830Z,85.47
2022-12-23T08:08:30.723Z,85.81
2022-12-23T08:11:00.340Z,84.28
2022-12-23T08:13:28.415Z,84.57
2022-12-23T08:15:57.443Z,84.75
2022-12-23T08:18:25.415Z,84.71
2022-12-23T08:20:58.677Z,84.86
2022-12-23T08:23:27.252Z,84.40
2022-12-23T08:26:02.483Z,84.45
2022-12-23T08:28:30.357Z,83.99
2022-12-23T08:31:04.945Z,84.04
2022-12-23T08:33:32.772Z,84.09
2022-12-23T08:36:01.986Z,83.27
2022-12-23T08:38:29.609Z,83.59
2022-12-23T08:40:57.291Z,83.55
2022-12-23T08:43:26.679Z,82.43
2022-12-23T08:45:57.823Z,83.40
2022-12-23T08:48:25.543Z,82.72
2022-12-23T08:50:53.242Z,82.50
2022-12-23T08:53:22.299Z,82.88
2022-12-23T08:55:49.915Z,82.80
2022-12-23T08:58:17.449Z,83.02
2022-12-23T09:00:44.980Z,82.54
2022-12-23T09:03:12.598Z,82.63
2022-12-23T09:05:41.825Z,83.53
2022-12-23T09:08:09.703Z,81.98
2022-12-23T09:10:43.291Z,82.30
2022-12-23T09:13:14.934Z,82.35
2022-12-23T09:15:46.615Z,82.34
2022-12-23T09:18:14.227Z,81.82
2022-12-23T09:20:41.748Z,82.79
2022-12-23T09:23:09.344Z,82.19
2022-12-23T09:25:37.981Z,81.70
2022-12-23T09:28:07.563Z,82.81
2022-12-23T09:30:35.043Z,81.91
2022-12-23T09:33:02.536Z,82.28
2022-12-23T09:35:30.536Z,82.25
2022-12-23T09:37:58.268Z,82.47
2022-12-23T09:40:25.906Z,83.28
2022-12-23T09:43:04.780Z,83.50
2022-12-23T09:45:49.635Z,82.09
2022-12-23T09:48:21.592Z,82.12
2022-12-23T09:50:49.986Z,82.61
2022-12-23T09:53:20.496Z,82.17
2022-12-23T09:55:52.791Z,81.35
2022-12-23T09:58:29.933Z,81.38
2022-12-23T10:01:18.101Z,81.55
2022-12-23T10:04:04.757Z,81.43
2022-12-23T10:06:34.623Z,81.36
2022-12-23T10:09:05.364Z,81.94
2022-12-23T10:11:37.886Z,82.06
2022-12-23T10:14:13.882Z,82.16
2022-12-23T10:16:46.363Z,81.77
2022-12-23T10:19:19.646Z,82.47
2022-12-23T10:21:49.668Z,82.02
2022-12-23T10:24:22.729Z,82.10
2022-12-23T10:26:54.279Z,81.23
2022-12-23T10:29:23.425Z,80.16
2022-12-23T10:32:12.564Z,80.05
2022-12-23T10:34:49.705Z,79.45
2022-12-23T10:37:28.506Z,79.16
2022-12-23T10:40:10.653Z,79.26
2022-12-23T10:42:43.859Z,78.74
2022-12-23T10:45:26.736Z,78.42
2022-12-23T10:48:11.898Z,78.27
2022-12-23T10:50:50.993Z,78.13
2022-12-23T10:53:30.144Z,78.37
2022-12-23T10:55:59.461Z,77.51
2022-12-23T10:58:27.562Z,77.81
2022-12-23T11:00:58.362Z,78.19
2022-12-23T11:03:32.015Z,78.16
2022-12-23T11:06:01.469Z,78.63
2022-12-23T11:08:31.624Z,77.99
2022-12-23T11:11:01.097Z,78.77
2022-12-23T11:13:37.001Z,78.06
2022-12-23T11:16:21.956Z,77.86
2022-12-23T11:18:56.763Z,77.54
2022-12-23T11:21:24.471Z,78.17
2022-12-23T11:24:08.350Z,78.85
2022-12-23T11:26:36.440Z,79.20
2022-12-23T11:29:07.822Z,79.07
2022-12-23T11:31:36.731Z,80.12
2022-12-23T11:34:08.192Z,80.21
2022-12-23T11:36:36.161Z,80.10
2022-12-23T11:39:08.594Z,80.37
2022-12-23T11:41:38.847Z,79.52
2022-12-23T11:44:11.693Z,80.48
2022-12-23T11:46:39.325Z,79.99
2022-12-23T11:49:16.212Z,81.53
2022-12-23T11:51:44.264Z,80.63
2022-12-23T11:54:17.526Z,80.58
2022-12-23T11:56:45.848Z,80.04
2022-12-23T11:59:34.924Z,81.03
2022-12-23T12:02:05.818Z,80.01
2022-12-23T12:04:36.612Z,80.47
2022-12-23T12:07:05.697Z,80.24
2022-12-23T12:09:34.773Z,79.99
2022-12-23T12:12:06.405Z,80.86
2022-12-23T12:14:41.769Z,81.42
2022-12-23T12:17:15.363Z,81.24
2022-12-23T12:19:54.524Z,80.63
2022-12-23T12:22:30.517Z,80.33
2022-12-23T12:25:00.827Z,80.33
2022-12-23T12:27:36.830Z,81.17
2022-12-23T12:30:08.927Z,80.72
2022-12-23T12:32:45.061Z,80.51
2022-12-23T12:35:19.211Z,81.07
2022-12-23T12:37:52.996Z,80.37
2022-12-23T12:40:31.367Z,80.60
2022-12-23T12:43:05.190Z,79.89
2022-12-23T12:45:37.353Z,80.13
2022-12-23T12:48:22.541Z,80.35
2022-12-23T12:51:00.146Z,79.83
2022-12-23T12:53:29.664Z,79.71
2022-12-23T12:56:04.235Z,79.98
2022-12-23T12:58:31.925Z,78.65
2022-12-23T13:01:13.970Z,78.56
2022-12-23T13:04:11.449Z,78.34
2022-12-23T13:06:48.427Z,79.59
2022-12-23T13:09:25.576Z,79.28
2022-12-23T13:12:00.879Z,79.43
2022-12-23T13:14:34.561Z,80.52
2022-12-23T13:17:09.501Z,80.12
2022-12-23T13:19:43.650Z,79.51
2022-12-23T13:22:16.869Z,80.49
2022-12-23T13:24:57.495Z,80.93
2022-12-23T13:27:32.667Z,80.55
2022-12-23T13:30:21.491Z,80.87
2022-12-23T13:33:09.836Z,80.59
2022-12-23T13:35:49.802Z,80.21
2022-12-23T13:38:29.256Z,80.46
2022-12-23T13:41:03.554Z,81.51
2022-12-23T13:43:40.915Z,80.96
2022-12-23T13:46:18.762Z,81.45
2022-12-23T13:48:54.563Z,82.15
2022-12-23T13:51:29.913Z,82.46
2022-12-23T13:54:06.639Z,82.70
2022-12-23T13:56:42.486Z,81.96
2022-12-23T13:59:11.279Z,82.66
2022-12-23T14:01:46.406Z,83.06
2022-12-23T14:04:35.678Z,83.51
2022-12-23T14:07:07.894Z,83.13
2022-12-23T14:09:39.160Z,84.08
2022-12-23T14:12:14.443Z,83.78
2022-12-23T14:14:47.826Z,83.48
2022-12-23T14:17:25.222Z,83.86
2022-12-23T14:20:01.132Z,83.04
2022-12-23T14:22:49.935Z,83.14
2022-12-23T14:25:46.834Z,83.73
2022-12-23T14:28:28.949Z,84.03
2022-12-23T14:30:57.310Z,83.73
2022-12-23T14:33:27.222Z,83.85
2022-12-23T14:36:14.059Z,85.15
2022-12-23T14:38:41.650Z,85.86
2022-12-23T14:41:26.197Z,86.33
2022-12-23T14:43:59.226Z,87.12
2022-12-23T14:47:02.432Z,86.86
2022-12-23T14:49:41.239Z,86.46
2022-12-23T14:52:57.775Z,86.65
2022-12-23T14:55:46.835Z,87.76
2022-12-23T14:58:39.305Z,88.53
2022-12-23T15:01:12.793Z,88.52
2022-12-23T15:03:48.805Z,87.39
2022-12-23T15:06:20.106Z,86.50
2022-12-23T15:08:51.544Z,85.57
2022-12-23T15:11:24.076Z,84.02
2022-12-23T15:13:55.661Z,83.15
2022-12-23T15:16:31.502Z,82.61
2022-12-23T15:19:02.700Z,83.48
2022-12-23T15:21:33.496Z,83.98
2022-12-23T15:24:01.359Z,82.55
2022-12-23T15:26:32.488Z,82.46
2022-12-23T15:29:01.835Z,82.80
2022-12-23T15:31:33.401Z,83.20
2022-12-23T15:34:08.918Z,84.35
2022-12-23T15:36:44.595Z,84.39
2022-12-23T15:39:20.034Z,85.26
2022-12-23T15:41:49.168Z,84.87
2022-12-23T15:44:21.033Z,85.19
2022-12-23T15:46:49.327Z,87.09
2022-12-23T15:49:17.660Z,87.47
2022-12-23T15:52:07.159Z,88.90
2022-12-23T15:54:40.974Z,88.46
2022-12-23T15:57:08.970Z,88.48
2022-12-23T15:59:39.703Z,89.69
2022-12-23T16:02:49.782Z,89.71
2022-12-23T16:05:05.860Z,90.64
2022-12-23T16:07:35.877Z,89.22
2022-12-23T16:10:14.328Z,89.70
2022-12-23T16:12:42.899Z,90.03
2022-12-23T16:15:27.061Z,90.44
2022-12-23T16:18:13.064Z,90.49
2022-12-23T16:20:44.010Z,89.89
2022-12-23T16:23:12.945Z,92.74
2022-12-23T16:25:46.827Z,92.02
2022-12-23T16:28:22.757Z,92.16
2022-12-23T16:30:54.063Z,91.12
2022-12-23T16:33:27.944Z,90.84
2022-12-23T16:35:56.034Z,89.92
2022-12-23T16:38:25.739Z,89.97
2022-12-23T16:40:54.506Z,90.48
2022-12-23T16:43:23.354Z,90.74
2022-12-23T16:45:54.814Z,90.22
2022-12-23T16:48:28.978Z,91.50
2022-12-23T16:50:57.047Z,90.69
2022-12-23T16:53:24.853Z,90.74
2022-12-23T16:55:58.530Z,91.64
2022-12-23T16:58:28.312Z,90.49
2022-12-23T17:00:57.836Z,90.99
2022-12-23T17:03:25.315Z,91.37
2022-12-23T17:05:52.819Z,92.71
2022-12-23T17:08:20.303Z,92.02
2022-12-23T17:10:47.951Z,93.31
2022-12-23T17:13:18.210Z,92.87
2022-12-23T17:15:45.986Z,91.87
2022-12-23T17:18:16.849Z,92.24
2022-12-23T17:20:45.554Z,92.28
2022-12-23T17:23:24.992Z,91.92
2022-12-23T17:25:52.780Z,91.68
2022-12-23T17:28:20.659Z,91.12
2022-12-23T17:30:50.168Z,91.19
2022-12-23T17:33:20.188Z,91.93
2022-12-23T17:35:47.984Z,92.05
2022-12-23T17:38:16.654Z,91.62
2022-12-23T17:40:46.202Z,91.64
2022-12-23T17:43:15.085Z,90.96
2022-12-23T17:45:43.052Z,90.95
2022-12-23T17:48:16.355Z,91.05
2022-12-23T17:50:49.748Z,90.18
2022-12-23T17:53:18.789Z,91.39
2022-12-23T17:55:46.648Z,91.37
2022-12-23T17:58:14.990Z,90.78
2022-12-23T18:00:42.704Z,91.06
2022-12-23T18:03:21.804Z,90.63
2022-12-23T18:05:55.654Z,89.83
2022-12-23T18:08:26.734Z,91.43
2022-12-23T18:10:54.253Z,90.17
2022-12-23T18:13:22.415Z,90.15
2022-12-23T18:15:50.973Z,89.56
2022-12-23T18:18:28.658Z,91.09
2022-12-23T18:21:00.199Z,92.15
2022-12-23T18:23:29.439Z,92.38
2022-12-23T18:25:58.109Z,91.71
2022-12-23T18:28:25.868Z,90.40
2022-12-23T18:30:56.993Z,91.29
2022-12-23T18:33:28.587Z,90.00
2022-12-23T18:35:56.280Z,90.44
2022-12-23T18:38:25.163Z,91.19
2022-12-23T18:40:54.261Z,91.12
2022-12-23T18:43:24.679Z,90.12
2022-12-23T18:45:54.205Z,90.82
2022-12-23T18:48:22.330Z,90.36
2022-12-23T18:50:49.962Z,88.95
2022-12-23T18:53:24.352Z,88.84
2022-12-23T18:55:54.858Z,87.72
2022-12-23T18:58:23.089Z,87.81
2022-12-23T19:00:52.534Z,88.27
2022-12-23T19:03:23.700Z,88.47
2022-12-23T19:05:52.248Z,88.22
2022-12-23T19:08:26.309Z,86.93
2022-12-23T19:10:56.569Z,87.23
2022-12-23T19:13:24.653Z,87.29
2022-12-23T19:15:52.833Z,87.76
2022-12-23T19:18:22.171Z,86.68
2022-12-23T19:20:50.253Z,87.60
2022-12-23T19:23:17.831Z,87.53
2022-12-23T19:25:52.454Z,87.66
2022-12-23T19:28:24.799Z,87.17
2022-12-23T19:30:52.357Z,86.12
2022-12-23T19:33:19.899Z,86.47
2022-12-23T19:35:47.420Z,87.49
2022-12-23T19:38:14.912Z,87.64
2022-12-23T19:40:42.449Z,86.30
2022-12-23T19:43:09.962Z,86.79
2022-12-23T19:45:38.784Z,87.54
2022-12-23T19:48:06.704Z,86.85
2022-12-23T19:50:34.171Z,87.04
2022-12-23T19:53:01.649Z,87.80
2022-12-23T19:55:29.131Z,87.19
2022-12-23T19:57:56.614Z,86.75
2022-12-23T20:00:24.189Z,87.19
2022-12-23T20:02:58.673Z,86.22
2022-12-23T20:05:26.757Z,85.93
2022-12-23T20:07:54.264Z,86.16
2022-12-23T20:10:21.748Z,85.27
2022-12-23T20:12:49.214Z,85.81
2022-12-23T20:15:16.784Z,84.70
2022-12-23T20:17:44.303Z,86.31
2022-12-23T20:20:13.605Z,86.06
2022-12-23T20:22:41.115Z,84.87
2022-12-23T20:25:09.363Z,84.92
2022-12-23T20:27:38.630Z,85.18
2022-12-23T20:30:07.295Z,84.45
2022-12-23T20:32:34.823Z,84.38
2022-12-23T20:35:02.353Z,85.16
2022-12-23T20:37:31.288Z,84.49
2022-12-23T20:39:58.745Z,85.31
2022-12-23T20:42:26.993Z,83.64
2022-12-23T20:44:54.494Z,84.20
2022-12-23T20:47:21.961Z,84.17
2022-12-23T20:49:49.517Z,83.44
2022-12-23T20:52:17.536Z,83.35
2022-12-23T20:54:46.304Z,83.09
2022-12-23T20:57:13.791Z,83.96
2022-12-23T20:59:41.236Z,83.56
2022-12-23T21:02:12.802Z,83.08
2022-12-23T21:04:40.352Z,83.00
2022-12-23T21:07:08.137Z,83.36
2022-12-23T21:09:35.958Z,83.58
2022-12-23T21:12:05.077Z,83.16
2022-12-23T21:14:32.759Z,83.40
2022-12-23T21:17:00.287Z,84.84
2022-12-23T21:19:27.815Z,84.61
2022-12-23T21:21:55.282Z,84.68
2022-12-23T21:24:22.788Z,85.00
2022-12-23T21:26:56.413Z,84.63
2022-12-23T21:29:26.893Z,84.53
2022-12-23T21:31:54.896Z,84.12
2022-12-23T21:34:22.708Z,84.00
2022-12-23T21:36:50.387Z,84.68
2022-12-23T21:39:19.758Z,85.23
2022-12-23T21:41:49.053Z,86.45
2022-12-23T21:44:16.532Z,86.94
2022-12-23T21:46:45.430Z,87.64
2022-12-23T21:49:13.847Z,87.36
2022-12-23T21:51:42.273Z,87.20
2022-12-23T21:54:11.212Z,85.85
2022-12-23T21:56:39.850Z,86.40
2022-12-23T21:59:09.548Z,86.76
2022-12-23T22:01:36.974Z,87.51
2022-12-23T22:04:06.183Z,87.72
2022-12-23T22:06:36.505Z,87.63
2022-12-23T22:09:04.559Z,88.54
2022-12-23T22:11:34.884Z,88.41
2022-12-23T22:14:03.682Z,87.87
2022-12-23T22:16:32.247Z,87.68
2022-12-23T22:19:01.292Z,87.92
2022-12-23T22:21:32.050Z,87.50
2022-12-23T22:24:00.109Z,87.66
2022-12-23T22:26:29.218Z,88.39
2022-12-23T22:28:58.464Z,88.30
2022-12-23T22:31:32.720Z,88.49
2022-12-23T22:34:00.574Z,87.32
2022-12-23T22:36:28.411Z,87.56
2022-12-23T22:38:59.388Z,87.85
2022-12-23T22:41:28.731Z,86.97
2022-12-23T22:43:56.888Z,87.99
2022-12-23T22:46:25.289Z,87.45
2022-12-23T22:48:53.227Z,87.04
2022-12-23T22:51:23.230Z,86.97
2022-12-23T22:53:51.299Z,86.63
2022-12-23T22:56:21.968Z,86.88
2022-12-23T22:58:50.330Z,86.09
2022-12-23T23:01:22.336Z,85.70
2022-12-23T23:03:51.012Z,86.21
2022-12-23T23:06:19.021Z,85.66
2022-12-23T23:08:46.559Z,86.19
2022-12-23T23:11:14.036Z,86.14
2022-12-23T23:13:42.917Z,85.87
2022-12-23T23:16:10.478Z,85.94
2022-12-23T23:18:39.200Z,85.48
2022-12-23T23:21:06.891Z,85.94
2022-12-23T23:23:34.834Z,84.77
2022-12-23T23:26:02.916Z,84.64
2022-12-23T23:28:30.401Z,84.05
2022-12-23T23:31:31.899Z,84.03
2022-12-23T23:33:46.757Z,83.76
2022-12-23T23:36:14.297Z,83.58
2022-12-23T23:38:41.972Z,82.65
2022-12-23T23:41:09.504Z,82.29
2022-12-23T23:43:36.997Z,82.42
2022-12-23T23:46:05.984Z,82.10
2022-12-23T23:48:33.489Z,81.01
2022-12-23T23:51:05.857Z,80.49
2022-12-23T23:53:33.340Z,81.23
2022-12-23T23:56:06.486Z,82.02
2022-12-23T23:58:34.269Z,81.68
